Time;durP1;ratioP1;P1;durP2;ratioP2;P2;SDS_P1;SDS_P2;PMS_P1;PMS_P2;Temp;Humidity;BMP_temperature;BMP_pressure;BME280_temperature;BME280_humidity;BME280_pressure;Samples;Min_cycle;Max_cycle;Signal;HPM_P1;HPM_P2
2021/07/05 00:01:20;;;;;;;6.63;5.78;;;20.10;99.90;;;;;;5080746;28;20133;-77
2021/07/05 00:03:46;;;;;;;8.43;5.82;;;20.10;99.90;;;;;;5078102;28;20111;-77
2021/07/05 00:06:11;;;;;;;8.80;6.03;;;20.10;99.90;;;;;;5076086;28;20475;-77
2021/07/05 00:08:37;;;;;;;7.72;6.20;;;20.00;99.90;;;;;;5069986;28;20055;-77
2021/07/05 00:11:03;;;;;;;7.55;5.75;;;20.00;99.90;;;;;;5074958;28;20519;-77
2021/07/05 00:13:32;;;;;;;6.72;5.93;;;20.00;99.90;;;;;;5074071;28;20112;-76
2021/07/05 00:15:58;;;;;;;8.73;6.28;;;19.90;99.90;;;;;;5087373;28;20032;-77
2021/07/05 00:18:24;;;;;;;7.88;6.57;;;19.80;99.90;;;;;;5085296;28;20073;-77
2021/07/05 00:20:50;;;;;;;8.80;6.53;;;19.80;99.90;;;;;;5086745;28;20107;-76
2021/07/05 00:23:16;;;;;;;9.13;6.47;;;19.70;99.90;;;;;;5086551;28;20028;-77
2021/07/05 00:25:42;;;;;;;7.15;6.45;;;19.60;99.90;;;;;;5081008;28;20031;-77
2021/07/05 00:28:08;;;;;;;8.98;6.93;;;19.60;99.90;;;;;;5086265;28;20471;-77
2021/07/05 00:30:34;;;;;;;9.48;6.65;;;19.50;99.90;;;;;;5078835;28;20020;-77
2021/07/05 00:33:00;;;;;;;7.47;6.47;;;19.50;99.90;;;;;;5078946;28;20036;-77
2021/07/05 00:35:26;;;;;;;7.25;6.28;;;19.40;99.90;;;;;;5078514;28;20483;-77
2021/07/05 00:37:54;;;;;;;10.07;6.47;;;19.40;99.90;;;;;;5080400;28;20399;-77
2021/07/05 00:40:20;;;;;;;7.95;6.20;;;19.30;99.90;;;;;;5083655;28;20312;-77
2021/07/05 00:42:47;;;;;;;7.45;6.30;;;19.30;99.90;;;;;;5070710;28;20073;-77
2021/07/05 00:45:14;;;;;;;10.40;6.85;;;19.30;99.90;;;;;;5076263;28;20031;-77
2021/07/05 00:47:40;;;;;;;8.27;6.68;;;19.30;99.90;;;;;;5081249;28;20100;-77
2021/07/05 00:50:08;;;;;;;8.65;6.30;;;19.20;99.90;;;;;;5077642;28;20442;-77
2021/07/05 00:52:36;;;;;;;7.60;6.38;;;19.20;99.90;;;;;;5077279;28;20024;-77
2021/07/05 00:55:03;;;;;;;8.00;6.68;;;19.20;99.90;;;;;;5084601;28;20059;-77
2021/07/05 00:57:29;;;;;;;8.05;6.38;;;19.20;99.90;;;;;;5084678;28;20036;-77
2021/07/05 00:59:57;;;;;;;8.52;6.55;;;19.10;99.90;;;;;;5075208;28;20069;-77
2021/07/05 01:02:25;;;;;;;7.88;6.80;;;19.20;99.90;;;;;;5073518;28;20029;-77
2021/07/05 01:04:51;;;;;;;8.40;6.60;;;19.10;99.90;;;;;;5073789;28;20032;-77
2021/07/05 01:07:18;;;;;;;7.72;6.57;;;19.00;99.90;;;;;;5075593;28;20059;-77
2021/07/05 01:09:44;;;;;;;8.02;6.38;;;19.00;99.90;;;;;;5076001;28;20445;-77
2021/07/05 01:12:11;;;;;;;11.20;7.00;;;19.00;99.90;;;;;;5078683;28;20039;-77
2021/07/05 01:14:37;;;;;;;11.45;7.00;;;18.90;99.90;;;;;;5085368;28;20043;-76
2021/07/05 01:17:03;;;;;;;9.35;6.70;;;18.90;99.90;;;;;;5083654;28;20107;-77
2021/07/05 01:19:30;;;;;;;10.18;7.78;;;18.80;99.90;;;;;;5092275;28;20028;-77
2021/07/05 01:21:56;;;;;;;9.93;6.80;;;18.80;99.90;;;;;;5080610;28;20479;-77
2021/07/05 01:24:22;;;;;;;8.75;7.28;;;18.80;99.90;;;;;;5083867;28;20497;-77
2021/07/05 01:26:47;;;;;;;14.05;7.22;;;18.70;99.90;;;;;;5082819;28;20027;-77
2021/07/05 01:29:13;;;;;;;8.25;7.15;;;18.70;99.90;;;;;;5085907;28;20027;-77
2021/07/05 01:31:38;;;;;;;8.70;7.20;;;18.70;99.90;;;;;;5088225;28;20016;-77
2021/07/05 01:34:04;;;;;;;8.20;7.20;;;18.70;99.90;;;;;;5075916;28;20440;-77
2021/07/05 01:36:30;;;;;;;8.40;6.88;;;18.60;99.90;;;;;;5089049;28;20024;-77
2021/07/05 01:38:56;;;;;;;13.27;7.57;;;18.60;99.90;;;;;;5084359;28;20039;-77
2021/07/05 01:41:22;;;;;;;11.13;7.57;;;18.60;99.90;;;;;;5083316;28;20066;-77
2021/07/05 01:43:49;;;;;;;10.75;7.07;;;18.60;99.90;;;;;;5088604;28;20020;-76
2021/07/05 01:46:15;;;;;;;8.25;7.05;;;18.50;99.90;;;;;;5091113;28;20055;-77
2021/07/05 01:48:46;;;;;;;9.40;7.40;;;18.50;99.90;;;;;;5078686;28;20024;-77
2021/07/05 01:51:12;;;;;;;10.07;6.97;;;18.40;99.90;;;;;;5088391;28;20063;-77
2021/07/05 01:53:38;;;;;;;9.88;7.50;;;18.40;99.90;;;;;;5085349;28;20039;-77
2021/07/05 01:56:04;;;;;;;9.60;7.15;;;18.30;99.90;;;;;;5083394;28;20020;-77
2021/07/05 01:58:29;;;;;;;10.55;7.63;;;18.30;99.90;;;;;;5077933;28;20032;-77
2021/07/05 02:00:57;;;;;;;9.52;7.45;;;18.30;99.90;;;;;;5080636;28;20123;-77
2021/07/05 02:03:23;;;;;;;10.43;6.95;;;18.20;99.90;;;;;;5082131;28;20070;-76
2021/07/05 02:05:49;;;;;;;9.70;7.82;;;18.20;99.90;;;;;;5086333;28;20048;-77
2021/07/05 02:08:17;;;;;;;10.85;7.22;;;18.20;99.90;;;;;;5084739;28;20067;-76
2021/07/05 02:10:43;;;;;;;9.10;7.28;;;18.10;99.90;;;;;;5077345;28;20577;-77
2021/07/05 02:13:24;;;;;;;9.13;7.43;;;18.10;99.90;;;;;;5087981;28;20139;-77
2021/07/05 02:15:52;;;;;;;8.30;6.88;;;18.10;99.90;;;;;;5078018;28;20108;-76
2021/07/05 02:18:18;;;;;;;10.80;7.88;;;18.00;99.90;;;;;;5084027;28;20067;-77
2021/07/05 02:20:44;;;;;;;8.25;7.22;;;18.00;99.90;;;;;;5081538;28;20062;-76
2021/07/05 02:23:13;;;;;;;12.45;7.50;;;18.00;99.90;;;;;;5092614;28;20028;-76
2021/07/05 02:25:39;;;;;;;11.48;7.57;;;17.90;99.90;;;;;;5088134;28;20016;-77
2021/07/05 02:28:11;;;;;;;9.48;7.75;;;17.90;99.90;;;;;;5079786;28;20055;-76
2021/07/05 02:30:38;;;;;;;10.27;8.40;;;17.90;99.90;;;;;;5087884;28;20039;-76
2021/07/05 02:33:05;;;;;;;9.27;7.82;;;17.90;99.90;;;;;;5090736;28;20028;-77
2021/07/05 02:35:34;;;;;;;12.00;8.38;;;17.90;99.90;;;;;;5089568;28;20077;-77
2021/07/05 02:38:00;;;;;;;9.30;7.85;;;17.80;99.90;;;;;;5082920;28;20071;-77
2021/07/05 02:40:29;;;;;;;10.20;7.75;;;17.80;99.90;;;;;;5091198;28;20077;-77
2021/07/05 02:42:56;;;;;;;11.60;7.80;;;17.80;99.90;;;;;;5091015;28;20032;-76
2021/07/05 02:45:24;;;;;;;10.07;7.80;;;17.70;99.90;;;;;;5091153;28;20020;-77
2021/07/05 02:47:53;;;;;;;12.23;8.50;;;17.70;99.90;;;;;;5072656;28;20494;-77
2021/07/05 02:50:20;;;;;;;9.63;7.88;;;17.70;99.90;;;;;;5079764;28;20028;-77
2021/07/05 02:52:46;;;;;;;12.15;8.30;;;17.70;99.90;;;;;;5079848;28;20025;-77
2021/07/05 02:55:15;;;;;;;10.43;8.60;;;17.70;99.90;;;;;;5085142;28;20020;-77
2021/07/05 02:57:44;;;;;;;9.82;8.00;;;17.70;99.90;;;;;;5080014;28;20028;-76
2021/07/05 03:00:12;;;;;;;10.90;8.00;;;17.80;99.90;;;;;;5084106;28;20017;-77
2021/07/05 03:02:38;;;;;;;11.80;8.40;;;17.70;99.90;;;;;;5089428;28;20020;-76
2021/07/05 03:05:07;;;;;;;10.38;8.57;;;17.70;99.90;;;;;;5074816;28;20029;-77
2021/07/05 03:07:33;;;;;;;10.35;8.25;;;17.70;99.90;;;;;;5077780;28;20039;-77
2021/07/05 03:09:58;;;;;;;11.65;8.07;;;17.70;99.90;;;;;;5079401;28;20028;-77
2021/07/05 03:12:23;;;;;;;11.07;8.43;;;17.70;99.90;;;;;;5084726;28;20030;-77
2021/07/05 03:14:49;;;;;;;10.02;8.25;;;17.70;99.90;;;;;;5088778;28;20066;-77
2021/07/05 03:17:15;;;;;;;15.80;8.90;;;17.70;99.90;;;;;;5090351;28;20032;-77
2021/07/05 03:19:40;;;;;;;10.43;8.88;;;17.80;99.90;;;;;;5085942;28;20613;-77
2021/07/05 03:22:06;;;;;;;10.77;8.95;;;17.90;99.90;;;;;;5085577;28;20040;-77
2021/07/05 03:24:32;;;;;;;10.85;9.40;;;17.90;99.90;;;;;;5085478;28;20024;-77
2021/07/05 03:26:57;;;;;;;10.82;8.98;;;17.90;99.90;;;;;;5085810;28;20380;-77
2021/07/05 03:29:23;;;;;;;11.82;8.75;;;17.90;99.90;;;;;;5083626;28;20043;-77
2021/07/05 03:31:48;;;;;;;10.60;8.90;;;18.00;99.90;;;;;;5076420;28;20024;-77
2021/07/05 03:34:14;;;;;;;12.68;9.07;;;18.00;99.90;;;;;;5086373;28;20063;-76
2021/07/05 03:36:39;;;;;;;12.32;9.45;;;18.00;99.90;;;;;;5089364;28;20089;-77
2021/07/05 03:39:05;;;;;;;11.95;9.25;;;18.00;99.90;;;;;;5086212;28;20054;-76
2021/07/05 03:41:31;;;;;;;13.07;9.40;;;18.00;99.90;;;;;;5078811;28;20077;-76
2021/07/05 03:43:57;;;;;;;10.90;8.95;;;18.00;99.90;;;;;;5087450;28;20033;-77
2021/07/05 03:46:22;;;;;;;13.70;10.25;;;18.00;99.90;;;;;;5080871;28;20437;-76
2021/07/05 03:48:48;;;;;;;13.27;9.98;;;18.10;99.90;;;;;;5089486;28;20027;-76
2021/07/05 03:51:13;;;;;;;11.07;9.55;;;18.10;99.90;;;;;;5079400;28;20372;-76
2021/07/05 03:53:39;;;;;;;11.23;9.50;;;18.10;99.90;;;;;;5082991;28;20712;-76
2021/07/05 03:56:05;;;;;;;13.60;9.35;;;18.10;99.90;;;;;;5077547;28;20059;-76
2021/07/05 03:58:30;;;;;;;10.70;8.88;;;18.20;99.90;;;;;;5078737;28;20075;-77
2021/07/05 04:01:00;;;;;;;13.13;9.52;;;18.10;99.90;;;;;;5086637;28;20030;-76
2021/07/05 04:03:26;;;;;;;10.63;9.07;;;18.10;99.90;;;;;;5078312;28;20471;-77
2021/07/05 04:05:52;;;;;;;12.52;9.50;;;18.20;99.90;;;;;;5070405;28;20037;-77
2021/07/05 04:08:19;;;;;;;13.25;10.10;;;18.20;99.90;;;;;;5084178;28;20075;-77
2021/07/05 04:10:44;;;;;;;17.42;9.73;;;18.20;99.90;;;;;;5078930;28;20028;-76
2021/07/05 04:13:10;;;;;;;12.35;9.48;;;18.20;99.90;;;;;;5085608;28;20020;-76
2021/07/05 04:15:36;;;;;;;13.35;10.02;;;18.30;99.90;;;;;;5072801;28;20028;-77
2021/07/05 04:18:03;;;;;;;11.35;9.05;;;18.30;99.90;;;;;;5072285;28;20142;-77
2021/07/05 04:20:29;;;;;;;11.50;9.00;;;18.40;99.90;;;;;;5075403;28;20483;-77
2021/07/05 04:22:55;;;;;;;13.80;9.98;;;18.40;99.90;;;;;;5074985;28;20067;-77
2021/07/05 04:25:30;;;;;;;12.88;9.95;;;18.50;99.90;;;;;;5078983;28;20027;-77
2021/07/05 04:27:56;;;;;;;12.20;10.00;;;18.50;99.90;;;;;;5089063;28;20048;-77
2021/07/05 04:30:21;;;;;;;15.38;10.02;;;18.60;99.90;;;;;;5083074;28;20542;-77
2021/07/05 04:32:47;;;;;;;11.75;10.20;;;18.70;99.90;;;;;;5085223;28;20020;-77
2021/07/05 04:35:16;;;;;;;11.70;10.13;;;18.70;99.90;;;;;;5082129;28;20382;-76
2021/07/05 04:37:42;;;;;;;14.05;10.13;;;18.80;99.90;;;;;;5082836;28;20016;-76
2021/07/05 04:40:11;;;;;;;13.48;10.32;;;18.80;99.90;;;;;;5083397;28;20118;-77
2021/07/05 04:42:37;;;;;;;14.80;10.13;;;18.80;99.90;;;;;;5081567;28;20355;-77
2021/07/05 04:45:05;;;;;;;13.57;9.73;;;18.90;99.90;;;;;;5084112;28;20028;-77
2021/07/05 04:47:30;;;;;;;13.40;9.35;;;19.00;99.90;;;;;;5084687;28;20107;-77
2021/07/05 04:49:56;;;;;;;12.70;10.07;;;19.10;99.90;;;;;;5083942;28;20099;-77
2021/07/05 04:52:21;;;;;;;10.95;9.13;;;19.20;99.90;;;;;;5073796;28;20544;-76
2021/07/05 04:54:47;;;;;;;13.07;9.85;;;19.20;99.90;;;;;;5078024;28;20442;-76
2021/07/05 04:57:13;;;;;;;11.25;9.07;;;19.20;99.90;;;;;;5076105;28;20032;-77
2021/07/05 04:59:39;;;;;;;11.57;9.70;;;19.20;99.90;;;;;;5080531;28;20024;-77
2021/07/05 05:02:05;;;;;;;13.88;9.68;;;19.20;99.90;;;;;;5080252;28;20394;-77
2021/07/05 05:04:30;;;;;;;12.90;10.00;;;19.20;99.90;;;;;;5074507;28;20048;-77
2021/07/05 05:06:56;;;;;;;11.30;9.65;;;19.30;99.90;;;;;;5081183;28;20143;-76
2021/07/05 05:09:24;;;;;;;10.90;9.43;;;19.30;99.90;;;;;;5078710;28;20109;-77
2021/07/05 05:11:51;;;;;;;14.10;10.32;;;19.40;99.90;;;;;;5086017;28;20474;-77
2021/07/05 05:14:17;;;;;;;13.27;10.25;;;19.30;99.90;;;;;;5077058;28;20391;-76
2021/07/05 05:16:43;;;;;;;14.48;10.15;;;19.40;99.90;;;;;;5075222;28;20025;-76
2021/07/05 05:19:08;;;;;;;12.77;9.40;;;19.40;99.90;;;;;;5081130;28;20044;-77
2021/07/05 05:21:34;;;;;;;14.05;10.10;;;19.50;99.90;;;;;;5090540;28;20427;-76
2021/07/05 05:24:00;;;;;;;14.88;9.45;;;19.70;99.90;;;;;;5087012;28;20600;-77
2021/07/05 05:26:29;;;;;;;12.55;10.15;;;19.80;99.90;;;;;;5080614;28;20035;-77
2021/07/05 05:28:54;;;;;;;15.43;9.65;;;19.90;99.90;;;;;;5083312;28;20037;-77
2021/07/05 05:31:20;;;;;;;15.48;9.70;;;20.10;99.90;;;;;;5077970;28;20051;-77
2021/07/05 05:33:46;;;;;;;11.63;9.65;;;20.20;99.90;;;;;;5083213;28;20032;-77
2021/07/05 05:36:35;;;;;;;10.63;9.02;;;20.30;99.90;;;;;;5079313;28;20497;-78
2021/07/05 05:39:01;;;;;;;13.07;9.80;;;20.40;99.90;;;;;;5066661;28;20498;-81
2021/07/05 05:41:27;;;;;;;13.18;10.30;;;20.50;99.90;;;;;;5077951;28;20082;-79
2021/07/05 05:43:53;;;;;;;13.25;9.63;;;20.60;99.90;;;;;;5081707;28;20078;-79
2021/07/05 05:46:18;;;;;;;16.88;9.85;;;20.60;99.90;;;;;;5082699;28;20028;-81
2021/07/05 05:48:49;;;;;;;13.13;9.45;;;20.70;99.90;;;;;;5074002;28;20107;-79
2021/07/05 05:51:15;;;;;;;16.05;10.43;;;20.60;99.90;;;;;;5071235;28;20060;-79
2021/07/05 05:53:40;;;;;;;13.63;9.95;;;20.60;99.90;;;;;;5078837;28;20067;-78
2021/07/05 05:56:06;;;;;;;15.65;9.55;;;20.60;99.90;;;;;;5089161;28;20028;-77
2021/07/05 05:58:35;;;;;;;12.73;9.65;;;20.50;99.90;;;;;;5085833;28;20079;-77
2021/07/05 06:01:01;;;;;;;13.32;9.65;;;20.50;99.90;;;;;;5079248;28;20042;-77
2021/07/05 06:03:26;;;;;;;11.23;9.25;;;20.50;99.90;;;;;;5082334;28;20016;-77
2021/07/05 06:05:52;;;;;;;14.45;9.60;;;20.60;99.90;;;;;;5089383;28;20480;-75
2021/07/05 06:08:17;;;;;;;11.63;9.32;;;20.60;99.90;;;;;;5077369;28;20404;-77
2021/07/05 06:10:43;;;;;;;10.65;8.80;;;20.60;99.90;;;;;;5080168;28;20412;-78
2021/07/05 06:13:08;;;;;;;14.40;8.70;;;20.60;99.90;;;;;;5088768;28;20036;-77
2021/07/05 06:15:34;;;;;;;11.73;9.18;;;20.60;99.90;;;;;;5091331;28;20509;-77
2021/07/05 06:18:00;;;;;;;12.38;8.57;;;20.60;99.90;;;;;;5085127;28;20036;-78
2021/07/05 06:20:26;;;;;;;9.95;7.72;;;20.70;99.90;;;;;;5080612;28;20395;-78
2021/07/05 06:22:54;;;;;;;13.05;8.68;;;20.70;99.90;;;;;;5077731;28;20020;-77
2021/07/05 06:25:20;;;;;;;10.35;8.15;;;20.90;99.90;;;;;;5079573;28;20106;-76
2021/07/05 06:30:48;;;;;;;12.10;8.85;;;21.10;99.90;;;;;;5074000;28;20051;-78
2021/07/05 06:33:14;;;;;;;10.10;8.18;;;21.10;99.90;;;;;;5082961;28;20043;-78
2021/07/05 06:35:41;;;;;;;11.13;7.38;;;21.20;99.90;;;;;;5082847;28;20043;-77
2021/07/05 06:38:07;;;;;;;10.43;8.00;;;21.30;99.90;;;;;;5077625;28;20063;-78
2021/07/05 06:40:32;;;;;;;9.38;7.70;;;21.30;99.90;;;;;;5087009;28;20093;-77
2021/07/05 06:42:58;;;;;;;12.13;8.00;;;21.30;99.70;;;;;;5078845;28;20091;-78
2021/07/05 06:45:25;;;;;;;11.65;8.23;;;21.30;99.90;;;;;;5088893;28;20021;-79
2021/07/05 06:47:50;;;;;;;11.55;8.13;;;21.30;99.90;;;;;;5077815;28;20687;-79
2021/07/05 06:50:16;;;;;;;15.73;7.68;;;21.40;99.90;;;;;;5080371;28;20061;-78
2021/07/05 06:52:41;;;;;;;11.07;7.75;;;21.50;99.90;;;;;;5078117;28;20821;-80
2021/07/05 06:55:08;;;;;;;9.27;6.95;;;21.60;99.90;;;;;;5083198;28;20032;-78
2021/07/05 06:57:33;;;;;;;11.95;7.45;;;21.70;99.70;;;;;;5087282;28;20166;-77
2021/07/05 07:00:00;;;;;;;12.20;7.40;;;21.80;99.20;;;;;;5082276;28;20484;-78
2021/07/05 07:02:29;;;;;;;9.23;7.55;;;21.80;99.10;;;;;;5073809;28;20032;-77
2021/07/05 07:04:54;;;;;;;9.05;6.88;;;21.90;98.80;;;;;;5081249;28;20031;-77
2021/07/05 07:07:20;;;;;;;9.75;6.90;;;21.90;98.30;;;;;;5074170;28;20016;-79
2021/07/05 07:09:46;;;;;;;9.20;7.20;;;21.80;98.40;;;;;;5083302;28;20491;-77
2021/07/05 07:12:11;;;;;;;9.10;7.15;;;21.90;98.30;;;;;;5079899;28;20029;-81
2021/07/05 07:14:37;;;;;;;9.82;6.88;;;21.80;98.00;;;;;;5078351;28;20021;-77
2021/07/05 07:17:06;;;;;;;9.40;6.78;;;21.90;98.60;;;;;;5081117;28;20044;-77
2021/07/05 07:19:32;;;;;;;12.15;7.13;;;21.90;98.20;;;;;;5078903;28;20029;-74
2021/07/05 07:22:04;;;;;;;8.40;6.72;;;21.80;97.80;;;;;;5075740;28;20238;-75
2021/07/05 07:24:32;;;;;;;6.88;6.15;;;21.70;98.40;;;;;;5073732;28;20078;-74
2021/07/05 07:26:58;;;;;;;7.90;7.07;;;21.60;99.40;;;;;;5086340;28;20514;-73
2021/07/05 07:29:24;;;;;;;8.55;6.65;;;21.60;99.00;;;;;;5075245;28;20028;-74
2021/07/05 07:31:49;;;;;;;9.38;6.50;;;21.50;99.60;;;;;;5085848;28;20020;-74
2021/07/05 07:34:15;;;;;;;10.48;7.18;;;21.50;99.90;;;;;;5089195;28;20036;-74
2021/07/05 07:36:41;;;;;;;9.30;6.55;;;21.50;99.90;;;;;;5091167;28;20360;-74
2021/07/05 07:39:10;;;;;;;8.05;6.35;;;21.40;99.90;;;;;;5084654;28;20395;-74
2021/07/05 07:41:36;;;;;;;7.90;6.05;;;21.40;99.90;;;;;;5081957;28;20032;-74
2021/07/05 07:44:03;;;;;;;11.30;6.40;;;21.40;99.90;;;;;;5076811;28;20301;-75
2021/07/05 07:46:29;;;;;;;10.25;6.35;;;21.40;99.90;;;;;;5081976;28;20027;-75
2021/07/05 07:48:55;;;;;;;8.50;5.75;;;21.40;99.90;;;;;;5082679;28;20592;-75
2021/07/05 07:51:20;;;;;;;8.20;6.35;;;21.30;99.90;;;;;;5080116;28;20036;-75
2021/07/05 07:53:46;;;;;;;7.82;6.18;;;21.20;99.90;;;;;;5083273;28;20060;-75
2021/07/05 07:56:11;;;;;;;7.15;5.50;;;21.10;99.90;;;;;;5085090;28;20434;-75
2021/07/05 07:58:37;;;;;;;6.72;5.28;;;21.10;99.90;;;;;;5079374;28;20490;-75
2021/07/05 08:01:03;;;;;;;7.63;5.35;;;21.00;99.90;;;;;;5082447;28;20024;-77
2021/07/05 08:03:29;;;;;;;7.00;5.50;;;21.00;99.90;;;;;;5076709;28;20067;-76
2021/07/05 08:05:55;;;;;;;8.55;5.70;;;21.00;99.90;;;;;;5073295;28;20024;-77
2021/07/05 08:08:21;;;;;;;8.80;5.07;;;21.00;99.90;;;;;;5077011;28;20630;-78
2021/07/05 08:10:47;;;;;;;6.00;4.80;;;21.00;99.90;;;;;;5079231;28;20028;-78
2021/07/05 08:13:12;;;;;;;8.30;5.25;;;20.90;99.90;;;;;;5074856;28;20444;-80
2021/07/05 08:15:38;;;;;;;5.78;4.60;;;20.80;99.90;;;;;;5075391;28;20028;-76
2021/07/05 08:18:03;;;;;;;7.32;5.15;;;20.70;99.90;;;;;;5077582;28;20509;-80
2021/07/05 08:20:29;;;;;;;7.07;5.10;;;20.70;99.90;;;;;;5075007;28;20028;-79
2021/07/05 08:22:56;;;;;;;9.32;5.07;;;20.50;99.90;;;;;;5076374;28;20494;-78
2021/07/05 08:25:23;;;;;;;15.30;6.70;;;20.50;99.90;;;;;;5078586;28;20043;-77
2021/07/05 08:27:50;;;;;;;7.75;5.70;;;20.40;99.90;;;;;;5083298;28;20024;-80
2021/07/05 08:30:16;;;;;;;8.52;5.65;;;20.40;99.90;;;;;;5080725;28;20027;-85
2021/07/05 08:32:41;;;;;;;8.98;5.32;;;20.30;99.90;;;;;;5080322;28;20110;-84
2021/07/05 08:35:08;;;;;;;5.75;4.47;;;20.30;99.90;;;;;;5071703;28;20119;-84
2021/07/05 08:37:34;;;;;;;7.18;4.78;;;20.30;99.90;;;;;;5079852;28;20040;-86
2021/07/05 08:39:59;;;;;;;9.45;4.80;;;20.20;99.90;;;;;;5082805;28;20390;-89
2021/07/05 08:42:26;;;;;;;7.43;4.78;;;20.10;99.90;;;;;;5089489;28;20032;-86
2021/07/05 08:44:52;;;;;;;7.43;4.78;;;20.20;99.90;;;;;;5077210;28;20020;-86
2021/07/05 08:47:19;;;;;;;6.05;4.95;;;20.10;99.90;;;;;;5081427;28;20039;-85
2021/07/05 08:49:48;;;;;;;4.80;4.03;;;20.10;99.90;;;;;;5081698;28;20152;-84
2021/07/05 08:52:14;;;;;;;5.57;3.97;;;20.00;99.90;;;;;;5084802;28;20364;-85
2021/07/05 08:54:40;;;;;;;5.35;4.28;;;20.10;99.90;;;;;;5077332;28;20024;-83
2021/07/05 08:57:05;;;;;;;6.35;3.83;;;20.10;99.90;;;;;;5078278;28;20029;-94
2021/07/05 08:59:32;;;;;;;7.63;4.25;;;20.20;99.90;;;;;;5079208;28;20028;-90
2021/07/05 09:01:58;;;;;;;8.18;4.30;;;20.20;99.90;;;;;;5070407;28;20077;-88
2021/07/05 09:04:24;;;;;;;5.50;3.97;;;20.20;99.90;;;;;;5078493;28;20586;-92
2021/07/05 09:07:07;;;;;;;5.38;4.30;;;20.30;99.90;;;;;;5079882;28;20031;-92
2021/07/05 09:09:36;;;;;;;5.57;4.40;;;20.30;99.90;;;;;;5079573;28;20056;-89
2021/07/05 09:12:06;;;;;;;5.03;4.40;;;20.20;99.90;;;;;;5077950;28;20016;-81
2021/07/05 09:14:32;;;;;;;5.30;3.90;;;20.20;99.90;;;;;;5083348;28;20032;-84
2021/07/05 09:16:58;;;;;;;7.82;4.68;;;20.20;99.90;;;;;;5080623;28;20093;-87
2021/07/05 09:19:32;;;;;;;6.03;4.72;;;20.30;99.90;;;;;;5074260;28;20032;-81
2021/07/05 09:22:07;;;;;;;5.90;4.70;;;20.30;99.90;;;;;;5084641;28;20055;-82
2021/07/05 09:24:41;;;;;;;9.05;4.88;;;20.40;99.90;;;;;;5079389;28;20039;-84
2021/07/05 09:27:10;;;;;;;6.72;5.13;;;20.50;99.90;;;;;;5070768;28;20152;-86
2021/07/05 09:29:38;;;;;;;6.05;4.78;;;20.60;99.90;;;;;;5074811;28;20034;-87
2021/07/05 09:32:06;;;;;;;7.28;5.05;;;20.70;99.90;;;;;;5072400;28;20036;-84
2021/07/05 09:34:38;;;;;;;10.45;5.05;;;20.60;99.90;;;;;;5076586;28;20052;-86
2021/07/05 09:37:19;;;;;;;6.95;4.85;;;20.70;99.90;;;;;;5072434;28;20085;-85
2021/07/05 09:40:06;;;;;;;7.05;5.28;;;20.70;99.90;;;;;;5072720;28;20422;-85
2021/07/05 09:42:34;;;;;;;8.05;5.63;;;20.70;99.90;;;;;;5074116;28;20017;-89
2021/07/05 09:45:02;;;;;;;7.40;5.18;;;20.70;99.90;;;;;;5081388;28;20036;-92
2021/07/05 09:47:29;;;;;;;9.15;5.22;;;20.70;99.90;;;;;;5084171;28;20403;-86
2021/07/05 09:49:57;;;;;;;9.48;5.82;;;20.80;99.90;;;;;;5084135;28;20053;-90
2021/07/05 09:52:25;;;;;;;9.38;5.45;;;20.80;99.90;;;;;;5075094;28;20035;-86
2021/07/05 09:54:54;;;;;;;6.65;5.32;;;20.80;99.90;;;;;;5082836;28;20036;-86
2021/07/05 09:57:27;;;;;;;8.10;5.50;;;20.90;99.90;;;;;;5077686;28;20529;-89
2021/07/05 09:59:58;;;;;;;10.60;5.75;;;20.90;99.90;;;;;;5079880;28;20039;-85
2021/07/05 10:02:24;;;;;;;6.47;4.78;;;20.90;99.90;;;;;;5086702;28;20032;-85
2021/07/05 10:04:50;;;;;;;8.65;5.63;;;20.90;99.90;;;;;;5081537;28;20041;-87
2021/07/05 10:07:16;;;;;;;10.63;5.63;;;20.90;99.90;;;;;;5080443;28;20486;-80
2021/07/05 10:09:49;;;;;;;8.52;5.95;;;21.00;99.90;;;;;;5080409;28;20460;-88
2021/07/05 10:12:21;;;;;;;8.45;5.82;;;20.90;99.90;;;;;;5078237;28;20059;-85
2021/07/05 10:15:11;;;;;;;7.72;5.50;;;21.00;99.90;;;;;;5076130;28;20024;-90
2021/07/05 10:17:45;;;;;;;7.03;5.22;;;20.90;99.90;;;;;;5076438;28;20486;-86
2021/07/05 10:20:14;;;;;;;6.55;4.93;;;20.90;99.90;;;;;;5081686;28;20406;-88
2021/07/05 10:22:44;;;;;;;5.78;4.85;;;20.90;99.90;;;;;;5080087;28;21234;-86
2021/07/05 10:25:10;;;;;;;6.03;4.70;;;20.80;99.90;;;;;;5085422;28;20031;-89
2021/07/05 10:27:36;;;;;;;7.20;4.95;;;20.80;99.90;;;;;;5079924;28;20020;-88
2021/07/05 10:30:04;;;;;;;6.22;4.80;;;20.80;99.90;;;;;;5087664;28;20133;-85
2021/07/05 10:32:30;;;;;;;5.50;4.80;;;20.80;99.90;;;;;;5087948;28;20028;-85
2021/07/05 10:34:57;;;;;;;6.97;4.53;;;20.90;99.90;;;;;;5077789;28;20032;-86
2021/07/05 10:37:34;;;;;;;6.93;4.43;;;21.00;99.90;;;;;;5082041;28;20071;-85
2021/07/05 10:40:03;;;;;;;7.38;4.55;;;21.10;99.90;;;;;;5082119;28;20020;-81
2021/07/05 10:42:41;;;;;;;7.30;4.65;;;21.20;99.90;;;;;;5081330;28;20097;-92
2021/07/05 10:45:10;;;;;;;6.32;5.05;;;21.30;99.90;;;;;;5084998;28;20048;-90
2021/07/05 10:47:55;;;;;;;6.78;4.90;;;21.50;99.90;;;;;;5083656;28;20539;-88
2021/07/05 10:50:41;;;;;;;7.90;5.25;;;21.60;99.90;;;;;;5076759;28;20417;-86
2021/07/05 10:53:09;;;;;;;6.15;4.95;;;21.80;99.90;;;;;;5083194;28;20017;-85
2021/07/05 10:55:39;;;;;;;5.47;4.90;;;21.90;99.90;;;;;;5083334;28;21972;-86
2021/07/05 10:58:25;;;;;;;8.02;5.43;;;21.90;99.90;;;;;;5085572;28;20110;-86
2021/07/05 11:00:53;;;;;;;6.88;5.43;;;21.80;99.90;;;;;;5079530;28;20416;-82
2021/07/05 11:03:37;;;;;;;10.05;6.13;;;21.80;99.90;;;;;;5089392;28;20039;-84
2021/07/05 11:06:22;;;;;;;6.60;5.85;;;21.70;99.90;;;;;;5081037;28;20020;-81
2021/07/05 11:08:51;;;;;;;8.05;6.38;;;21.70;99.90;;;;;;5084389;28;20476;-80
2021/07/05 11:11:18;;;;;;;7.70;6.32;;;21.60;99.90;;;;;;5081663;28;20174;-84
2021/07/05 11:13:46;;;;;;;8.55;6.25;;;21.60;99.90;;;;;;5079314;28;20025;-79
2021/07/05 11:16:12;;;;;;;8.70;6.32;;;21.50;99.90;;;;;;5070548;28;20040;-80
2021/07/05 11:18:45;;;;;;;8.45;6.18;;;21.50;99.90;;;;;;5078478;28;20085;-89
2021/07/05 11:21:22;;;;;;;7.88;5.60;;;21.40;99.90;;;;;;5072827;28;20060;-89
2021/07/05 11:24:31;;;;;;;7.50;5.75;;;21.40;99.90;;;;;;5083540;28;20060;-84
2021/07/05 11:26:56;;;;;;;8.60;5.57;;;21.30;99.90;;;;;;5089044;28;20075;-88
2021/07/05 11:29:25;;;;;;;8.45;5.53;;;21.30;99.90;;;;;;5076268;28;20032;-87
2021/07/05 11:31:52;;;;;;;6.80;5.05;;;21.40;99.90;;;;;;5084676;28;20352;-81
2021/07/05 11:34:37;;;;;;;6.55;4.45;;;21.50;99.90;;;;;;5084101;28;20114;-82
2021/07/05 11:37:11;;;;;;;8.77;4.45;;;21.70;99.90;;;;;;5079416;28;20492;-79
2021/07/05 11:39:45;;;;;;;4.57;4.07;;;21.90;99.90;;;;;;5075700;28;20028;-79
2021/07/05 11:42:12;;;;;;;6.32;3.95;;;21.90;99.90;;;;;;5076480;28;20040;-82
2021/07/05 11:44:53;;;;;;;4.93;3.50;;;22.00;99.90;;;;;;5073808;28;20020;-78
2021/07/05 11:47:36;;;;;;;3.33;2.97;;;22.10;99.90;;;;;;5078025;28;20020;-77
2021/07/05 11:50:29;;;;;;;4.00;3.40;;;22.20;99.90;;;;;;5086681;28;20024;-77
2021/07/05 11:52:58;;;;;;;3.30;3.00;;;22.60;99.90;;;;;;5078343;28;20075;-77
2021/07/05 11:55:27;;;;;;;3.80;3.40;;;22.90;99.90;;;;;;5078786;28;20032;-77
2021/07/05 11:57:57;;;;;;;4.45;3.63;;;23.40;99.90;;;;;;5076218;28;20020;-75
2021/07/05 12:00:29;;;;;;;4.47;3.60;;;24.30;99.30;;;;;;5076767;28;20026;-76
2021/07/05 12:03:05;;;;;;;4.53;3.17;;;25.00;93.80;;;;;;5075146;28;20042;-78
2021/07/05 12:05:31;;;;;;;3.65;3.05;;;26.30;92.10;;;;;;5080030;28;20028;-77
2021/07/05 12:08:08;;;;;;;5.70;3.30;;;26.80;88.70;;;;;;5078208;28;20100;-77
2021/07/05 12:10:36;;;;;;;3.95;2.75;;;26.60;83.70;;;;;;5083469;28;20082;-76
2021/07/05 12:13:25;;;;;;;3.60;2.97;;;26.50;78.00;;;;;;5078173;28;20033;-78
2021/07/05 12:16:07;;;;;;;3.55;3.08;;;25.90;81.00;;;;;;5072803;28;20434;-78
2021/07/05 12:18:33;;;;;;;3.15;2.85;;;25.10;80.10;;;;;;5090056;28;20027;-77
2021/07/05 12:21:00;;;;;;;3.25;2.80;;;24.60;86.60;;;;;;5079535;28;20405;-77
2021/07/05 12:23:38;;;;;;;3.72;3.17;;;24.40;89.60;;;;;;5074060;28;20079;-77
2021/07/05 12:26:12;;;;;;;4.95;3.42;;;25.10;90.30;;;;;;5077351;28;20040;-77
2021/07/05 12:29:03;;;;;;;3.88;3.05;;;26.40;83.70;;;;;;5078140;28;20024;-77
2021/07/05 12:31:28;;;;;;;;;;;27.00;78.20;;;;;;5080518;28;20112;-77
2021/07/05 12:33:54;;;;;;;3.25;2.95;;;27.00;81.10;;;;;;5077764;28;20006;-77
2021/07/05 12:36:20;;;;;;;3.60;2.88;;;26.60;78.40;;;;;;5079090;28;20036;-77
2021/07/05 12:39:14;;;;;;;6.72;3.08;;;26.30;83.30;;;;;;5081490;28;20036;-76
2021/07/05 12:41:42;;;;;;;3.38;3.08;;;27.60;83.50;;;;;;5007275;28;20579;-77
2021/07/05 12:44:12;;;;;;;3.97;3.22;;;28.40;72.10;;;;;;5079568;28;20116;-76
2021/07/05 12:46:38;;;;;;;4.90;3.22;;;28.40;73.70;;;;;;5078577;28;20021;-75
2021/07/05 12:49:04;;;;;;;3.78;3.13;;;29.20;71.30;;;;;;5080864;28;20039;-76
2021/07/05 12:51:30;;;;;;;3.33;2.85;;;29.70;68.70;;;;;;5081250;28;20028;-76